Observations de surface / France / LFBO

Québec | Canada | États-Unis | France | UK | Europe | Ailleurs

Affichage: Infos & localisation pour LFBO | Aide pour décoder les METARs

LFBO TOULOUSE/BLAGNAC -- FR
Raw surface observations for station LFBO
LFBO 211700Z AUTO 12004KT CAVOK 08/M01 Q1021 NOSIG=
LFBO 211630Z AUTO 11004KT CAVOK 09/M01 Q1021 NOSIG=
LFBO 211600Z AUTO 12005KT CAVOK 10/M01 Q1021 NOSIG=
LFBO 211530Z AUTO 13010KT CAVOK 10/M01 Q1021 NOSIG=
LFBO 211500Z AUTO 11009KT CAVOK 11/M00 Q1021 NOSIG=
LFBO 211430Z AUTO 11008KT CAVOK 11/00 Q1020 NOSIG=
LFBO 211400Z AUTO 12011KT CAVOK 11/00 Q1020 NOSIG=
LFBO 211330Z AUTO 11009KT 080V150 CAVOK 11/00 Q1021 NOSIG=
LFBO 211300Z AUTO 09007KT CAVOK 11/M00 Q1021 NOSIG=
LFBO 211230Z AUTO 11007KT 070V150 CAVOK 11/M01 Q1022 NOSIG=
LFBO 211200Z AUTO 13005KT 100V170 CAVOK 10/M00 Q1022 NOSIG=
LFBO 211130Z AUTO 12007KT CAVOK 09/M01 Q1022 NOSIG=
LFBO 211100Z AUTO 11008KT 070V140 CAVOK 09/M01 Q1022 NOSIG=
LFBO 211030Z AUTO 10004KT 070V130 CAVOK 07/M00 Q1023 NOSIG=
LFBO 211000Z AUTO 06004KT 030V090 CAVOK 05/M01 Q1023 NOSIG=
LFBO 210930Z AUTO VRB03KT CAVOK 03/M02 Q1023 NOSIG=
LFBO 210900Z AUTO 07003KT 030V090 CAVOK 02/M02 Q1023 NOSIG=
LFBO 210830Z AUTO VRB02KT CAVOK 00/M03 Q1023 NOSIG=
LFBO 210800Z AUTO VRB03KT CAVOK M01/M03 Q1022 NOSIG=
LFBO 210730Z AUTO VRB02KT 8000 NSC M02/M04 Q1022 NOSIG=
LFBO 210700Z AUTO VRB01KT 9000 NSC M02/M04 Q1022 NOSIG=
LFBO 210630Z AUTO 34003KT 8000 FEW008 M01/M03 Q1022 NOSIG=
LFBO 210600Z AUTO VRB02KT 8000 NSC M01/M05 Q1022 NOSIG=
LFBO 210530Z AUTO VRB02KT 7000 NSC M01/M04 Q1022 NOSIG=
LFBO 210500Z AUTO VRB02KT 7000 NSC M01/M03 Q1022 TEMPO 4000 BR=
LFBO 210430Z AUTO 00000KT 8000 NSC M01/M03 Q1023 TEMPO 4000 BR=
LFBO 210400Z AUTO 00000KT 9000 NSC M01/M03 Q1023 TEMPO 4000 BR=
LFBO 210330Z AUTO VRB02KT 7000 NSC M00/M03 Q1023 TEMPO 4000 BR=
LFBO 210300Z AUTO VRB02KT 8000 NSC 00/M02 Q1023 TEMPO 4000 BR=
LFBO 210230Z AUTO VRB03KT 9999 FEW030 01/M03 Q1023 TEMPO 4000 BR=
LFBO 210200Z AUTO 03002KT 9999 BKN032 02/M02 Q1023 TEMPO 4000 BR=
LFBO 210130Z AUTO VRB02KT 9999 BKN033 02/M02 Q1023 TEMPO 4000 BR=
LFBO 210100Z AUTO 07004KT 040V100 CAVOK 03/M01 Q1023 NOSIG=
LFBO 210030Z AUTO 06003KT CAVOK 03/M01 Q1023 NOSIG=
LFBO 210000Z AUTO 08004KT 040V110 CAVOK 03/M01 Q1024 NOSIG=
LFBO 202330Z AUTO 08003KT 9999 FEW030 03/M01 Q1024 NOSIG=
LFBO 202300Z AUTO 10004KT 070V130 CAVOK 04/M01 Q1024 NOSIG=
LFBO 202230Z AUTO VRB02KT CAVOK 03/M01 Q1024 NOSIG=
LFBO 202200Z AUTO 09003KT CAVOK 04/M00 Q1024 NOSIG=
LFBO 202130Z AUTO 09005KT CAVOK 04/00 Q1024 NOSIG=
LFBO 202100Z AUTO 10004KT CAVOK 05/00 Q1024 NOSIG=
LFBO 202030Z AUTO 11006KT CAVOK 05/00 Q1024 NOSIG=
LFBO 202000Z AUTO 12005KT 9999 SCT029 04/00 Q1024 NOSIG=
LFBO 201930Z AUTO 13004KT 9999 BKN032 BKN041 04/00 Q1024 NOSIG=
LFBO 201900Z AUTO 14005KT 9999 BKN033 BKN042 04/M00 Q1024 NOSIG=
LFBO 201830Z AUTO 17003KT 9999 BKN033 BKN045 04/M01 Q1024 NOSIG=
LFBO 201800Z AUTO 11003KT 9999 FEW036 BKN044 05/M00 Q1023 NOSIG=
LFBO 201730Z AUTO 12005KT 9999 FEW038 OVC044 06/M00 Q1023 NOSIG=
LFBO 201700Z AUTO 15006KT 9999 BKN038 OVC044 07/M00 Q1023 NOSIG=